sensor_id;sensor_type;location;lat;lon;timestamp;pressure;altitude;pressure_sealevel;temperature
53412;BMP280;39307;52.870;13.660;2023-01-06T00:00:38;101617.81;;;1.88
53412;BMP280;39307;52.870;13.660;2023-01-06T00:03:07;101613.06;;;1.82
53412;BMP280;39307;52.870;13.660;2023-01-06T00:05:34;101617.19;;;1.72
53412;BMP280;39307;52.870;13.660;2023-01-06T00:08:00;101615.78;;;1.69
53412;BMP280;39307;52.870;13.660;2023-01-06T00:10:26;101611.75;;;1.65
53412;BMP280;39307;52.870;13.660;2023-01-06T00:12:53;101617.34;;;1.59
53412;BMP280;39307;52.870;13.660;2023-01-06T00:15:19;101613.94;;;1.58
53412;BMP280;39307;52.870;13.660;2023-01-06T00:17:45;101620.00;;;1.57
53412;BMP280;39307;52.870;13.660;2023-01-06T00:20:12;101621.91;;;1.55
53412;BMP280;39307;52.870;13.660;2023-01-06T00:22:39;101622.81;;;1.54
53412;BMP280;39307;52.870;13.660;2023-01-06T00:25:05;101616.00;;;1.53
53412;BMP280;39307;52.870;13.660;2023-01-06T00:27:31;101623.88;;;1.52
53412;BMP280;39307;52.870;13.660;2023-01-06T00:29:57;101610.22;;;1.50
53412;BMP280;39307;52.870;13.660;2023-01-06T00:32:24;101624.06;;;1.49
53412;BMP280;39307;52.870;13.660;2023-01-06T00:34:50;101615.25;;;1.64
53412;BMP280;39307;52.870;13.660;2023-01-06T00:37:16;101613.91;;;1.71
53412;BMP280;39307;52.870;13.660;2023-01-06T00:39:42;101620.00;;;1.57
53412;BMP280;39307;52.870;13.660;2023-01-06T00:42:08;101614.88;;;1.45
53412;BMP280;39307;52.870;13.660;2023-01-06T00:44:44;101613.22;;;1.32
53412;BMP280;39307;52.870;13.660;2023-01-06T00:47:11;101612.28;;;1.33
53412;BMP280;39307;52.870;13.660;2023-01-06T00:49:37;101609.41;;;1.37
53412;BMP280;39307;52.870;13.660;2023-01-06T00:52:03;101610.53;;;1.45
53412;BMP280;39307;52.870;13.660;2023-01-06T00:54:29;101609.81;;;1.56
53412;BMP280;39307;52.870;13.660;2023-01-06T00:56:55;101611.56;;;1.68
53412;BMP280;39307;52.870;13.660;2023-01-06T00:59:23;101612.69;;;1.51
53412;BMP280;39307;52.870;13.660;2023-01-06T01:01:52;101604.75;;;1.42
53412;BMP280;39307;52.870;13.660;2023-01-06T01:04:19;101604.25;;;1.49
53412;BMP280;39307;52.870;13.660;2023-01-06T01:06:46;101600.09;;;1.59
53412;BMP280;39307;52.870;13.660;2023-01-06T01:09:15;101600.09;;;1.59
53412;BMP280;39307;52.870;13.660;2023-01-06T01:11:42;101601.25;;;1.43
53412;BMP280;39307;52.870;13.660;2023-01-06T01:14:11;101599.19;;;1.23
53412;BMP280;39307;52.870;13.660;2023-01-06T01:16:39;101596.81;;;1.08
53412;BMP280;39307;52.870;13.660;2023-01-06T01:19:05;101598.78;;;1.05
53412;BMP280;39307;52.870;13.660;2023-01-06T01:21:31;101583.50;;;1.02
53412;BMP280;39307;52.870;13.660;2023-01-06T01:23:57;101576.31;;;1.07
53412;BMP280;39307;52.870;13.660;2023-01-06T01:26:24;101583.84;;;1.10
53412;BMP280;39307;52.870;13.660;2023-01-06T01:28:50;101605.69;;;1.16
53412;BMP280;39307;52.870;13.660;2023-01-06T01:31:17;101606.84;;;1.25
53412;BMP280;39307;52.870;13.660;2023-01-06T01:33:43;101609.72;;;1.33
53412;BMP280;39307;52.870;13.660;2023-01-06T01:36:12;101605.09;;;1.38
53412;BMP280;39307;52.870;13.660;2023-01-06T01:38:38;101610.03;;;1.41
53412;BMP280;39307;52.870;13.660;2023-01-06T01:41:05;101604.75;;;1.42
53412;BMP280;39307;52.870;13.660;2023-01-06T01:43:56;101606.44;;;1.43
53412;BMP280;39307;52.870;13.660;2023-01-06T01:48:54;101605.06;;;1.62
53412;BMP280;39307;52.870;13.660;2023-01-06T01:51:27;101597.22;;;1.51
53412;BMP280;39307;52.870;13.660;2023-01-06T01:53:57;101599.09;;;1.37
53412;BMP280;39307;52.870;13.660;2023-01-06T01:56:26;101601.06;;;1.34
53412;BMP280;39307;52.870;13.660;2023-01-06T01:59:06;101610.25;;;1.38
53412;BMP280;39307;52.870;13.660;2023-01-06T02:01:33;101603.22;;;1.40
53412;BMP280;39307;52.870;13.660;2023-01-06T02:04:00;101601.97;;;1.45
53412;BMP280;39307;52.870;13.660;2023-01-06T02:06:26;101598.75;;;1.54
53412;BMP280;39307;52.870;13.660;2023-01-06T02:09:16;101601.94;;;1.57
53412;BMP280;39307;52.870;13.660;2023-01-06T02:11:44;101598.66;;;1.68
53412;BMP280;39307;52.870;13.660;2023-01-06T02:14:16;101598.84;;;1.65
53412;BMP280;39307;52.870;13.660;2023-01-06T02:28:33;101589.38;;;1.53
53412;BMP280;39307;52.870;13.660;2023-01-06T02:42:54;101558.03;;;1.70
53412;BMP280;39307;52.870;13.660;2023-01-06T02:45:54;101554.03;;;1.66
53412;BMP280;39307;52.870;13.660;2023-01-06T02:51:47;101547.72;;;1.70
53412;BMP280;39307;52.870;13.660;2023-01-06T02:54:27;101558.97;;;1.69
53412;BMP280;39307;52.870;13.660;2023-01-06T02:57:17;101549.03;;;1.75
53412;BMP280;39307;52.870;13.660;2023-01-06T03:00:10;101537.09;;;1.74
53412;BMP280;39307;52.870;13.660;2023-01-06T03:02:41;101536.97;;;1.75
53412;BMP280;39307;52.870;13.660;2023-01-06T03:05:12;101527.97;;;1.81
53412;BMP280;39307;52.870;13.660;2023-01-06T03:07:42;101534.16;;;1.78
53412;BMP280;39307;52.870;13.660;2023-01-06T03:10:11;101524.84;;;1.88
53412;BMP280;39307;52.870;13.660;2023-01-06T03:13:09;101524.13;;;1.86
53412;BMP280;39307;52.870;13.660;2023-01-06T03:15:38;101525.06;;;1.85
53412;BMP280;39307;52.870;13.660;2023-01-06T03:18:05;101528.84;;;1.92
53412;BMP280;39307;52.870;13.660;2023-01-06T03:20:31;101522.75;;;1.93
53412;BMP280;39307;52.870;13.660;2023-01-06T03:22:57;101504.00;;;2.02
53412;BMP280;39307;52.870;13.660;2023-01-06T03:25:24;101514.25;;;2.03
53412;BMP280;39307;52.870;13.660;2023-01-06T03:27:50;101516.53;;;1.96
53412;BMP280;39307;52.870;13.660;2023-01-06T03:30:16;101518.41;;;1.94
53412;BMP280;39307;52.870;13.660;2023-01-06T03:32:59;101518.91;;;1.99
53412;BMP280;39307;52.870;13.660;2023-01-06T03:38:24;101503.78;;;2.05
53412;BMP280;39307;52.870;13.660;2023-01-06T03:41:59;101500.91;;;2.09
53412;BMP280;39307;52.870;13.660;2023-01-06T03:44:28;101497.91;;;2.03
53412;BMP280;39307;52.870;13.660;2023-01-06T03:47:08;101491.09;;;2.02
53412;BMP280;39307;52.870;13.660;2023-01-06T03:49:44;101488.53;;;2.02
53412;BMP280;39307;52.870;13.660;2023-01-06T03:52:26;101483.28;;;2.14
53412;BMP280;39307;52.870;13.660;2023-01-06T03:55:16;101484.97;;;2.26
53412;BMP280;39307;52.870;13.660;2023-01-06T03:57:49;101478.50;;;2.21
53412;BMP280;39307;52.870;13.660;2023-01-06T04:00:27;101468.06;;;2.22
53412;BMP280;39307;52.870;13.660;2023-01-06T04:02:54;101474.41;;;2.29
53412;BMP280;39307;52.870;13.660;2023-01-06T04:05:23;101470.09;;;2.40
53412;BMP280;39307;52.870;13.660;2023-01-06T04:07:50;101469.84;;;2.32
53412;BMP280;39307;52.870;13.660;2023-01-06T04:10:18;101474.53;;;2.28
53412;BMP280;39307;52.870;13.660;2023-01-06T04:12:45;101476.72;;;2.21
53412;BMP280;39307;52.870;13.660;2023-01-06T04:15:15;101469.91;;;2.20
53412;BMP280;39307;52.870;13.660;2023-01-06T04:17:43;101474.28;;;2.20
53412;BMP280;39307;52.870;13.660;2023-01-06T04:20:16;101476.84;;;2.20
53412;BMP280;39307;52.870;13.660;2023-01-06T04:22:42;101463.94;;;2.20
53412;BMP280;39307;52.870;13.660;2023-01-06T04:25:09;101471.00;;;2.29
53412;BMP280;39307;52.870;13.660;2023-01-06T04:27:35;101457.19;;;2.40
53412;BMP280;39307;52.870;13.660;2023-01-06T04:30:02;101454.28;;;2.66
53412;BMP280;39307;52.870;13.660;2023-01-06T04:32:28;101446.66;;;2.65
53412;BMP280;39307;52.870;13.660;2023-01-06T04:34:54;101447.84;;;2.61
53412;BMP280;39307;52.870;13.660;2023-01-06T04:37:21;101435.09;;;2.47
53412;BMP280;39307;52.870;13.660;2023-01-06T04:39:47;101436.63;;;2.39
53412;BMP280;39307;52.870;13.660;2023-01-06T04:42:13;101432.84;;;2.32
53412;BMP280;39307;52.870;13.660;2023-01-06T04:44:39;101426.72;;;2.33
53412;BMP280;39307;52.870;13.660;2023-01-06T04:47:06;101439.78;;;2.31
53412;BMP280;39307;52.870;13.660;2023-01-06T04:49:32;101438.25;;;2.29
53412;BMP280;39307;52.870;13.660;2023-01-06T04:51:58;101434.16;;;2.37
53412;BMP280;39307;52.870;13.660;2023-01-06T04:54:24;101424.53;;;2.50
53412;BMP280;39307;52.870;13.660;2023-01-06T04:56:50;101415.16;;;2.49
53412;BMP280;39307;52.870;13.660;2023-01-06T04:59:17;101415.75;;;2.53
53412;BMP280;39307;52.870;13.660;2023-01-06T05:01:43;101408.09;;;2.62
53412;BMP280;39307;52.870;13.660;2023-01-06T05:04:09;101411.41;;;2.64
53412;BMP280;39307;52.870;13.660;2023-01-06T05:06:35;101399.63;;;2.60
53412;BMP280;39307;52.870;13.660;2023-01-06T05:09:02;101395.66;;;2.56
53412;BMP280;39307;52.870;13.660;2023-01-06T05:11:30;101396.34;;;2.69
53412;BMP280;39307;52.870;13.660;2023-01-06T05:13:57;101401.41;;;2.59
53412;BMP280;39307;52.870;13.660;2023-01-06T05:16:29;101404.13;;;2.58
53412;BMP280;39307;52.870;13.660;2023-01-06T05:18:56;101399.88;;;2.57
53412;BMP280;39307;52.870;13.660;2023-01-06T05:21:23;101391.91;;;2.71
53412;BMP280;39307;52.870;13.660;2023-01-06T05:23:50;101391.41;;;2.66
53412;BMP280;39307;52.870;13.660;2023-01-06T05:26:19;101387.41;;;2.73
53412;BMP280;39307;52.870;13.660;2023-01-06T05:28:46;101372.03;;;2.82
53412;BMP280;39307;52.870;13.660;2023-01-06T05:31:13;101379.44;;;2.97
53412;BMP280;39307;52.870;13.660;2023-01-06T05:33:39;101380.47;;;2.84
53412;BMP280;39307;52.870;13.660;2023-01-06T05:36:08;101373.31;;;2.77
53412;BMP280;39307;52.870;13.660;2023-01-06T05:38:35;101375.91;;;2.77
53412;BMP280;39307;52.870;13.660;2023-01-06T05:41:02;101373.44;;;2.75
53412;BMP280;39307;52.870;13.660;2023-01-06T05:43:28;101366.25;;;2.79
53412;BMP280;39307;52.870;13.660;2023-01-06T05:45:55;101365.34;;;2.80
53412;BMP280;39307;52.870;13.660;2023-01-06T05:48:26;101367.09;;;2.79
53412;BMP280;39307;52.870;13.660;2023-01-06T05:51:03;101362.75;;;2.80
53412;BMP280;39307;52.870;13.660;2023-01-06T05:53:36;101359.34;;;2.79
53412;BMP280;39307;52.870;13.660;2023-01-06T05:56:04;101355.91;;;2.79
53412;BMP280;39307;52.870;13.660;2023-01-06T05:58:30;101351.22;;;2.84
53412;BMP280;39307;52.870;13.660;2023-01-06T06:00:56;101341.44;;;2.87
53412;BMP280;39307;52.870;13.660;2023-01-06T06:03:22;101331.94;;;2.87
53412;BMP280;39307;52.870;13.660;2023-01-06T06:05:48;101322.41;;;2.88
53412;BMP280;39307;52.870;13.660;2023-01-06T06:08:14;101327.47;;;2.89
53412;BMP280;39307;52.870;13.660;2023-01-06T06:10:40;101326.50;;;2.90
53412;BMP280;39307;52.870;13.660;2023-01-06T06:13:07;101322.06;;;2.92
53412;BMP280;39307;52.870;13.660;2023-01-06T06:15:33;101329.34;;;2.98
53412;BMP280;39307;52.870;13.660;2023-01-06T06:18:03;101320.75;;;2.98
53412;BMP280;39307;52.870;13.660;2023-01-06T06:20:29;101324.97;;;2.99
53412;BMP280;39307;52.870;13.660;2023-01-06T06:22:55;101310.16;;;3.01
53412;BMP280;39307;52.870;13.660;2023-01-06T06:25:22;101312.63;;;3.02
53412;BMP280;39307;52.870;13.660;2023-01-06T06:27:48;101312.63;;;3.02
53412;BMP280;39307;52.870;13.660;2023-01-06T06:30:14;101314.38;;;3.02
53412;BMP280;39307;52.870;13.660;2023-01-06T06:32:40;101315.22;;;3.02
53412;BMP280;39307;52.870;13.660;2023-01-06T06:35:06;101320.13;;;3.05
53412;BMP280;39307;52.870;13.660;2023-01-06T06:37:33;101309.69;;;3.07
53412;BMP280;39307;52.870;13.660;2023-01-06T06:39:59;101289.56;;;3.10
53412;BMP280;39307;52.870;13.660;2023-01-06T06:42:25;101292.81;;;3.12
53412;BMP280;39307;52.870;13.660;2023-01-06T06:44:51;101286.72;;;3.13
53412;BMP280;39307;52.870;13.660;2023-01-06T06:47:17;101289.06;;;3.16
53412;BMP280;39307;52.870;13.660;2023-01-06T06:49:44;101285.66;;;3.16
53412;BMP280;39307;52.870;13.660;2023-01-06T06:52:10;101279.06;;;3.22
53412;BMP280;39307;52.870;13.660;2023-01-06T06:54:36;101270.56;;;3.20
53412;BMP280;39307;52.870;13.660;2023-01-06T06:57:03;101282.84;;;3.18
53412;BMP280;39307;52.870;13.660;2023-01-06T06:59:29;101288.59;;;3.22
53412;BMP280;39307;52.870;13.660;2023-01-06T07:01:55;101282.59;;;3.21
53412;BMP280;39307;52.870;13.660;2023-01-06T07:04:22;101286.66;;;3.24
53412;BMP280;39307;52.870;13.660;2023-01-06T07:06:48;101284.09;;;3.24
53412;BMP280;39307;52.870;13.660;2023-01-06T07:09:13;101285.84;;;3.23
53412;BMP280;39307;52.870;13.660;2023-01-06T07:11:40;101285.84;;;3.23
53412;BMP280;39307;52.870;13.660;2023-01-06T07:14:06;101288.19;;;3.26
53412;BMP280;39307;52.870;13.660;2023-01-06T07:16:32;101265.88;;;3.25
53412;BMP280;39307;52.870;13.660;2023-01-06T07:18:59;101273.38;;;3.28
53412;BMP280;39307;52.870;13.660;2023-01-06T07:21:25;101263.84;;;3.29
53412;BMP280;39307;52.870;13.660;2023-01-06T07:23:51;101262.88;;;3.30
53412;BMP280;39307;52.870;13.660;2023-01-06T07:26:17;101259.00;;;3.35
53412;BMP280;39307;52.870;13.660;2023-01-06T07:28:44;101259.00;;;3.35
53412;BMP280;39307;52.870;13.660;2023-01-06T07:31:10;101251.38;;;3.34
53412;BMP280;39307;52.870;13.660;2023-01-06T07:33:36;101251.13;;;3.37
53412;BMP280;39307;52.870;13.660;2023-01-06T07:36:02;101238.75;;;3.40
53412;BMP280;39307;52.870;13.660;2023-01-06T07:38:29;101236.84;;;3.42
53412;BMP280;39307;52.870;13.660;2023-01-06T07:40:59;101240.94;;;3.44
53412;BMP280;39307;52.870;13.660;2023-01-06T07:43:26;101246.56;;;3.49
53412;BMP280;39307;52.870;13.660;2023-01-06T07:45:52;101246.19;;;3.54
53412;BMP280;39307;52.870;13.660;2023-01-06T07:48:18;101253.69;;;3.57
53412;BMP280;39307;52.870;13.660;2023-01-06T07:50:45;101251.94;;;3.57
53412;BMP280;39307;52.870;13.660;2023-01-06T07:53:11;101252.78;;;3.58
53412;BMP280;39307;52.870;13.660;2023-01-06T07:55:37;101253.75;;;3.66
53412;BMP280;39307;52.870;13.660;2023-01-06T07:58:05;101249.09;;;3.60
53412;BMP280;39307;52.870;13.660;2023-01-06T08:00:32;101252.50;;;3.61
53412;BMP280;39307;52.870;13.660;2023-01-06T08:03:04;101255.22;;;3.59
53412;BMP280;39307;52.870;13.660;2023-01-06T08:05:30;101238.38;;;3.65
53412;BMP280;39307;52.870;13.660;2023-01-06T08:07:56;101224.47;;;3.66
53412;BMP280;39307;52.870;13.660;2023-01-06T08:10:23;101227.75;;;3.68
53412;BMP280;39307;52.870;13.660;2023-01-06T08:12:49;101223.69;;;3.74
53412;BMP280;39307;52.870;13.660;2023-01-06T08:15:15;101240.06;;;3.75
53412;BMP280;39307;52.870;13.660;2023-01-06T08:17:41;101231.22;;;3.77
53412;BMP280;39307;52.870;13.660;2023-01-06T08:20:08;101232.03;;;3.78
53412;BMP280;39307;52.870;13.660;2023-01-06T08:22:34;101224.97;;;3.80
53412;BMP280;39307;52.870;13.660;2023-01-06T08:25:01;101227.81;;;3.77
53412;BMP280;39307;52.870;13.660;2023-01-06T08:27:27;101223.31;;;3.79
53412;BMP280;39307;52.870;13.660;2023-01-06T08:29:53;101219.78;;;3.80
53412;BMP280;39307;52.870;13.660;2023-01-06T08:32:20;101213.00;;;3.88
53412;BMP280;39307;52.870;13.660;2023-01-06T08:34:46;101209.31;;;3.91
53412;BMP280;39307;52.870;13.660;2023-01-06T08:37:13;101204.28;;;3.89
53412;BMP280;39307;52.870;13.660;2023-01-06T08:39:39;101201.19;;;3.95
53412;BMP280;39307;52.870;13.660;2023-01-06T08:42:05;101196.41;;;4.00
53412;BMP280;39307;52.870;13.660;2023-01-06T08:44:31;101195.59;;;4.00
53412;BMP280;39307;52.870;13.660;2023-01-06T08:46:58;101183.59;;;3.99
53412;BMP280;39307;52.870;13.660;2023-01-06T08:49:25;101178.97;;;4.02
53412;BMP280;39307;52.870;13.660;2023-01-06T08:51:51;101166.47;;;4.07
53412;BMP280;39307;52.870;13.660;2023-01-06T08:54:17;101170.69;;;4.08
53412;BMP280;39307;52.870;13.660;2023-01-06T08:56:44;101161.94;;;4.09
53412;BMP280;39307;52.870;13.660;2023-01-06T08:59:13;101156.75;;;4.09
53412;BMP280;39307;52.870;13.660;2023-01-06T09:01:41;101160.19;;;4.09
53412;BMP280;39307;52.870;13.660;2023-01-06T09:04:08;101163.47;;;4.11
53412;BMP280;39307;52.870;13.660;2023-01-06T09:06:35;101162.69;;;4.20
53412;BMP280;39307;52.870;13.660;2023-01-06T09:09:03;101153.00;;;4.22
53412;BMP280;39307;52.870;13.660;2023-01-06T09:11:30;101138.84;;;4.35
53412;BMP280;39307;52.870;13.660;2023-01-06T09:13:56;101148.25;;;4.36
53412;BMP280;39307;52.870;13.660;2023-01-06T09:16:22;101151.69;;;4.37
53412;BMP280;39307;52.870;13.660;2023-01-06T09:18:49;101160.28;;;4.37
53412;BMP280;39307;52.870;13.660;2023-01-06T09:21:19;101142.78;;;4.39
53412;BMP280;39307;52.870;13.660;2023-01-06T09:23:46;101149.09;;;4.46
53412;BMP280;39307;52.870;13.660;2023-01-06T09:26:13;101152.38;;;4.48
53412;BMP280;39307;52.870;13.660;2023-01-06T09:28:40;101139.28;;;4.50
53412;BMP280;39307;52.870;13.660;2023-01-06T09:31:07;101145.28;;;4.59
53412;BMP280;39307;52.870;13.660;2023-01-06T09:33:33;101140.38;;;4.57
53412;BMP280;39307;52.870;13.660;2023-01-06T09:36:00;101136.97;;;4.56
53412;BMP280;39307;52.870;13.660;2023-01-06T09:38:26;101126.16;;;4.60
53412;BMP280;39307;52.870;13.660;2023-01-06T09:41:12;101125.50;;;4.59
53412;BMP280;39307;52.870;13.660;2023-01-06T09:46:31;101114.88;;;4.71
53412;BMP280;39307;52.870;13.660;2023-01-06T09:49:08;101106.94;;;4.72
53412;BMP280;39307;52.870;13.660;2023-01-06T09:51:39;101102.97;;;4.78
53412;BMP280;39307;52.870;13.660;2023-01-06T09:56:42;101113.09;;;4.81
53412;BMP280;39307;52.870;13.660;2023-01-06T09:59:21;101089.34;;;4.85
53412;BMP280;39307;52.870;13.660;2023-01-06T10:01:50;101094.78;;;4.91
53412;BMP280;39307;52.870;13.660;2023-01-06T10:04:24;101102.41;;;4.93
53412;BMP280;39307;52.870;13.660;2023-01-06T10:07:11;101091.38;;;5.00
53412;BMP280;39307;52.870;13.660;2023-01-06T10:10:04;101086.78;;;5.21
53412;BMP280;39307;52.870;13.660;2023-01-06T10:13:01;101087.91;;;5.18
53412;BMP280;39307;52.870;13.660;2023-01-06T10:15:39;101081.50;;;5.13
53412;BMP280;39307;52.870;13.660;2023-01-06T10:18:29;101089.28;;;5.13
53412;BMP280;39307;52.870;13.660;2023-01-06T10:24:04;101065.47;;;5.27
53412;BMP280;39307;52.870;13.660;2023-01-06T10:26:41;101034.03;;;5.30
53412;BMP280;39307;52.870;13.660;2023-01-06T10:29:17;101043.84;;;5.36
53412;BMP280;39307;52.870;13.660;2023-01-06T10:31:45;101038.25;;;5.40
53412;BMP280;39307;52.870;13.660;2023-01-06T10:34:27;101040.84;;;5.40
53412;BMP280;39307;52.870;13.660;2023-01-06T10:39:37;101027.28;;;5.46
53412;BMP280;39307;52.870;13.660;2023-01-06T10:42:26;101015.94;;;5.47
53412;BMP280;39307;52.870;13.660;2023-01-06T10:44:55;101012.38;;;5.48
53412;BMP280;39307;52.870;13.660;2023-01-06T10:47:28;101022.88;;;5.56
53412;BMP280;39307;52.870;13.660;2023-01-06T10:49:56;101016.13;;;5.63
53412;BMP280;39307;52.870;13.660;2023-01-06T10:52:23;101017.63;;;5.65
53412;BMP280;39307;52.870;13.660;2023-01-06T10:54:54;101009.81;;;5.75
53412;BMP280;39307;52.870;13.660;2023-01-06T10:57:26;100997.50;;;5.76
53412;BMP280;39307;52.870;13.660;2023-01-06T11:00:12;100985.38;;;5.85
53412;BMP280;39307;52.870;13.660;2023-01-06T11:02:44;100986.25;;;5.85
53412;BMP280;39307;52.870;13.660;2023-01-06T11:05:16;100995.06;;;5.92
53412;BMP280;39307;52.870;13.660;2023-01-06T11:08:12;100999.69;;;5.98
53412;BMP280;39307;52.870;13.660;2023-01-06T11:10:40;100996.63;;;6.03
53412;BMP280;39307;52.870;13.660;2023-01-06T11:13:35;100987.94;;;6.11
53412;BMP280;39307;52.870;13.660;2023-01-06T11:16:27;100984.63;;;6.19
53412;BMP280;39307;52.870;13.660;2023-01-06T11:18:57;100982.03;;;6.19
53412;BMP280;39307;52.870;13.660;2023-01-06T11:21:43;100978.44;;;6.20
53412;BMP280;39307;52.870;13.660;2023-01-06T11:24:22;100977.47;;;6.21
53412;BMP280;39307;52.870;13.660;2023-01-06T11:26:52;100963.22;;;6.25
53412;BMP280;39307;52.870;13.660;2023-01-06T11:29:39;100964.25;;;6.32
53412;BMP280;39307;52.870;13.660;2023-01-06T11:32:12;100963.94;;;6.34
53412;BMP280;39307;52.870;13.660;2023-01-06T11:34:53;100949.84;;;6.37
53412;BMP280;39307;52.870;13.660;2023-01-06T11:37:40;100944.03;;;6.43
53412;BMP280;39307;52.870;13.660;2023-01-06T11:40:29;100944.69;;;6.45
53412;BMP280;39307;52.870;13.660;2023-01-06T11:42:58;100946.84;;;6.49
53412;BMP280;39307;52.870;13.660;2023-01-06T11:45:36;100944.25;;;6.49
53412;BMP280;39307;52.870;13.660;2023-01-06T11:48:24;100947.34;;;6.53
53412;BMP280;39307;52.870;13.660;2023-01-06T11:51:01;100931.44;;;6.56
53412;BMP280;39307;52.870;13.660;2023-01-06T11:53:28;100935.53;;;6.58
53412;BMP280;39307;52.870;13.660;2023-01-06T11:56:01;100927.44;;;6.61
53412;BMP280;39307;52.870;13.660;2023-01-06T11:58:39;100921.06;;;6.63
53412;BMP280;39307;52.870;13.660;2023-01-06T12:01:19;100913.34;;;6.71
53412;BMP280;39307;52.870;13.660;2023-01-06T12:03:50;100916.44;;;6.75
53412;BMP280;39307;52.870;13.660;2023-01-06T12:06:29;100908.00;;;6.81
53412;BMP280;39307;52.870;13.660;2023-01-06T12:11:53;100903.69;;;6.89
53412;BMP280;39307;52.870;13.660;2023-01-06T12:14:27;100903.38;;;6.92
53412;BMP280;39307;52.870;13.660;2023-01-06T12:19:56;100887.00;;;7.07
53412;BMP280;39307;52.870;13.660;2023-01-06T12:25:01;100880.50;;;7.11
53412;BMP280;39307;52.870;13.660;2023-01-06T12:27:41;100876.78;;;7.14
53412;BMP280;39307;52.870;13.660;2023-01-06T12:30:20;100894.84;;;7.15
53412;BMP280;39307;52.870;13.660;2023-01-06T12:32:48;100889.31;;;7.18
53412;BMP280;39307;52.870;13.660;2023-01-06T12:35:20;100895.53;;;7.25
53412;BMP280;39307;52.870;13.660;2023-01-06T12:37:55;100895.22;;;7.28
53412;BMP280;39307;52.870;13.660;2023-01-06T12:40:30;100889.03;;;7.29
53412;BMP280;39307;52.870;13.660;2023-01-06T12:43:16;100897.66;;;7.29
53412;BMP280;39307;52.870;13.660;2023-01-06T12:45:50;100886.59;;;7.35
53412;BMP280;39307;52.870;13.660;2023-01-06T12:48:43;100883.53;;;7.40
53412;BMP280;39307;52.870;13.660;2023-01-06T12:51:21;100877.34;;;7.41
53412;BMP280;39307;52.870;13.660;2023-01-06T12:54:19;100871.97;;;7.42
53412;BMP280;39307;52.870;13.660;2023-01-06T12:57:08;100874.44;;;7.44
53412;BMP280;39307;52.870;13.660;2023-01-06T13:02:42;100866.94;;;7.48
53412;BMP280;39307;52.870;13.660;2023-01-06T13:08:17;100865.97;;;7.57
53412;BMP280;39307;52.870;13.660;2023-01-06T13:13:35;100863.41;;;7.65
53412;BMP280;39307;52.870;13.660;2023-01-06T13:16:37;100864.22;;;7.66
53412;BMP280;39307;52.870;13.660;2023-01-06T13:21:52;100867.97;;;7.71
53412;BMP280;39307;52.870;13.660;2023-01-06T13:24:25;100870.56;;;7.79
53412;BMP280;39307;52.870;13.660;2023-01-06T13:27:13;100868.81;;;7.79
53412;BMP280;39307;52.870;13.660;2023-01-06T13:29:52;100864.72;;;7.85
53412;BMP280;39307;52.870;13.660;2023-01-06T13:32:55;100861.16;;;7.86
53412;BMP280;39307;52.870;13.660;2023-01-06T13:35:43;100871.25;;;7.89
53412;BMP280;39307;52.870;13.660;2023-01-06T13:41:15;100867.03;;;8.04
53412;BMP280;39307;52.870;13.660;2023-01-06T13:43:46;100866.50;;;8.00
53412;BMP280;39307;52.870;13.660;2023-01-06T13:46:15;100875.50;;;7.98
53412;BMP280;39307;52.870;13.660;2023-01-06T13:48:48;100877.09;;;7.99
53412;BMP280;39307;52.870;13.660;2023-01-06T13:51:19;100873.19;;;8.03
53412;BMP280;39307;52.870;13.660;2023-01-06T13:53:46;100865.75;;;8.07
53412;BMP280;39307;52.870;13.660;2023-01-06T13:58:42;100880.56;;;8.15
53412;BMP280;39307;52.870;13.660;2023-01-06T14:01:30;100874.06;;;8.19
53412;BMP280;39307;52.870;13.660;2023-01-06T14:06:58;100868.50;;;8.22
53412;BMP280;39307;52.870;13.660;2023-01-06T14:09:25;100865.06;;;8.21
53412;BMP280;39307;52.870;13.660;2023-01-06T14:11:52;100867.81;;;8.28
53412;BMP280;39307;52.870;13.660;2023-01-06T14:14:23;100868.50;;;8.30
53412;BMP280;39307;52.870;13.660;2023-01-06T14:16:51;100874.38;;;8.32
53412;BMP280;39307;52.870;13.660;2023-01-06T14:21:53;100879.72;;;8.30
53412;BMP280;39307;52.870;13.660;2023-01-06T14:24:27;100877.78;;;8.32
53412;BMP280;39307;52.870;13.660;2023-01-06T14:26:56;100875.66;;;8.35
53412;BMP280;39307;52.870;13.660;2023-01-06T14:32:56;100891.97;;;8.30
53412;BMP280;39307;52.870;13.660;2023-01-06T14:35:09;100882.16;;;8.39
53412;BMP280;39307;52.870;13.660;2023-01-06T14:37:52;100896.66;;;8.42
53412;BMP280;39307;52.870;13.660;2023-01-06T14:40:32;100907.09;;;8.42
53412;BMP280;39307;52.870;13.660;2023-01-06T14:43:04;100913.63;;;8.46
53412;BMP280;39307;52.870;13.660;2023-01-06T14:45:38;100915.41;;;8.45
53412;BMP280;39307;52.870;13.660;2023-01-06T14:48:13;100914.44;;;8.54
53412;BMP280;39307;52.870;13.660;2023-01-06T14:50:45;100913.63;;;8.54
53412;BMP280;39307;52.870;13.660;2023-01-06T14:53:43;100912.16;;;8.59
53412;BMP280;39307;52.870;13.660;2023-01-06T14:56:20;100911.63;;;8.63
53412;BMP280;39307;52.870;13.660;2023-01-06T14:58:47;100915.75;;;8.58
53412;BMP280;39307;52.870;13.660;2023-01-06T15:01:25;100920.31;;;8.56
53412;BMP280;39307;52.870;13.660;2023-01-06T15:03:56;100928.81;;;8.58
53412;BMP280;39307;52.870;13.660;2023-01-06T15:06:24;100924.41;;;8.59
53412;BMP280;39307;52.870;13.660;2023-01-06T15:08:50;100922.25;;;8.62
53412;BMP280;39307;52.870;13.660;2023-01-06T15:11:24;100941.00;;;8.58
53412;BMP280;39307;52.870;13.660;2023-01-06T15:13:51;100942.97;;;8.63
53412;BMP280;39307;52.870;13.660;2023-01-06T15:16:39;100937.88;;;8.78
53412;BMP280;39307;52.870;13.660;2023-01-06T15:19:07;100947.53;;;8.69
53412;BMP280;39307;52.870;13.660;2023-01-06T15:21:41;100957.81;;;8.63
53412;BMP280;39307;52.870;13.660;2023-01-06T15:24:19;100944.59;;;8.64
53412;BMP280;39307;52.870;13.660;2023-01-06T15:26:55;100945.09;;;8.68
53412;BMP280;39307;52.870;13.660;2023-01-06T15:29:27;100951.97;;;8.61
53412;BMP280;39307;52.870;13.660;2023-01-06T15:31:54;100956.03;;;8.56
53412;BMP280;39307;52.870;13.660;2023-01-06T15:34:33;100956.34;;;8.53
53412;BMP280;39307;52.870;13.660;2023-01-06T15:37:05;100955.56;;;8.52